Time;durP1;ratioP1;P1;durP2;ratioP2;P2;SDS_P1;SDS_P2;PMS_P1;PMS_P2;Temp;Humidity;BMP_temperature;BMP_pressure;BME280_temperature;BME280_humidity;BME280_pressure;Samples;Min_cycle;Max_cycle;Signal;HPM_P1;HPM_P2
2021/07/23 00:02:24;;;;;;;14.00;8.95;;;16.40;99.90;;;;;;4973892;28;20023;-75
2021/07/23 00:04:49;;;;;;;13.30;9.18;;;16.60;99.90;;;;;;4974099;28;20389;-75
2021/07/23 00:07:15;;;;;;;14.63;9.32;;;16.50;99.90;;;;;;4963344;28;20040;-75
2021/07/23 00:09:41;;;;;;;15.77;9.27;;;17.30;99.90;;;;;;4953115;29;20066;-75
2021/07/23 00:12:07;;;;;;;15.68;10.00;;;;;;;;;;4954328;29;20110;-74
2021/07/23 00:14:33;;;;;;;19.23;9.77;;;;;;;;;;4954447;28;20038;-75
2021/07/23 00:16:59;;;;;;;14.40;9.63;;;;;;;;;;4954518;29;20031;-77
2021/07/23 00:19:25;;;;;;;18.45;11.02;;;;;;;;;;4964314;28;20105;-75
2021/07/23 00:21:51;;;;;;;12.60;9.52;;;;;;;;;;4973765;28;20361;-75
2021/07/23 00:24:17;;;;;;;13.18;9.00;;;;;;;;;;4973904;28;20137;-76
2021/07/23 00:26:49;;;;;;;12.95;8.82;;;;;;;;;;4973142;28;20078;-74
2021/07/23 00:29:15;;;;;;;16.33;10.10;;;;;;;;;;4973084;28;20482;-75
2021/07/23 00:31:41;;;;;;;16.58;9.93;;;;;;;;;;4961734;28;20058;-75
2021/07/23 00:34:07;;;;;;;15.02;10.38;;;;;;;;;;4955511;29;20118;-76
2021/07/23 00:36:33;;;;;;;17.80;10.18;;;;;;;;;;4956598;28;20027;-75
2021/07/23 00:38:59;;;;;;;18.23;10.48;;;;;;;;;;4956462;28;20503;-75
2021/07/23 00:41:25;;;;;;;18.92;10.00;;;;;;;;;;4953586;29;20155;-75
2021/07/23 00:43:51;;;;;;;14.18;10.05;;;;;;;;;;4966471;28;20481;-75
2021/07/23 00:46:17;;;;;;;17.40;10.70;;;;;;;;;;4954126;29;20035;-76
2021/07/23 00:48:43;;;;;;;13.32;9.70;;;;;;;;;;4953945;29;20499;-74
2021/07/23 00:51:09;;;;;;;14.00;9.23;;;;;;;;;;4953574;28;20023;-75
2021/07/23 00:53:35;;;;;;;16.25;10.48;;;;;;;;;;4949619;28;20031;-75
2021/07/23 00:56:02;;;;;;;16.38;9.88;;;;;;;;;;4964806;28;20023;-75
2021/07/23 00:58:30;;;;;;;14.15;10.35;;;;;;;;;;4972444;28;20073;-77
2021/07/23 01:00:57;;;;;;;15.13;10.73;;;;;;;;;;4972869;28;20014;-75
2021/07/23 01:03:24;;;;;;;16.65;10.73;;;;;;;;;;4971356;28;20027;-75
2021/07/23 01:05:51;;;;;;;17.98;9.70;;;;;;;;;;4973036;28;20035;-75
2021/07/23 01:08:17;;;;;;;14.15;10.35;;;;;;;;;;4954862;28;20484;-75
2021/07/23 01:10:43;;;;;;;13.55;9.48;;;;;;;;;;4952901;28;20028;-75
2021/07/23 01:13:11;;;;;;;14.88;9.93;;;;;;;;;;4952199;29;20039;-75
2021/07/23 01:15:37;;;;;;;16.27;10.38;;;;;;;;;;4949137;28;20034;-75
2021/07/23 01:18:03;;;;;;;14.00;9.65;;;;;;;;;;4934873;28;20033;-75
2021/07/23 01:20:29;;;;;;;14.25;9.63;;;;;;;;;;4971078;28;20118;-76
2021/07/23 01:22:58;;;;;;;13.43;8.93;;;;;;;;;;4972674;28;20121;-76
2021/07/23 01:25:24;;;;;;;13.63;9.50;;;;;;;;;;4971091;28;20127;-76
2021/07/23 01:27:50;;;;;;;14.80;10.23;;;;;;;;;;4972768;28;20027;-76
2021/07/23 01:30:17;;;;;;;15.75;9.82;;;;;;;;;;4970138;28;20113;-74
2021/07/23 01:32:43;;;;;;;14.63;9.55;;;;;;;;;;4953478;29;20027;-75
2021/07/23 01:35:09;;;;;;;14.02;9.98;;;;;;;;;;4953538;29;20481;-75
2021/07/23 01:37:35;;;;;;;12.70;9.43;;;;;;;;;;4953605;29;20027;-75
2021/07/23 01:40:02;;;;;;;15.00;10.25;;;;;;;;;;4952664;28;20392;-74
2021/07/23 01:42:29;;;;;;;12.85;9.77;;;;;;;;;;4972375;28;20035;-75
2021/07/23 01:44:55;;;;;;;14.02;9.57;;;;;;;;;;4963686;28;20031;-75
2021/07/23 01:47:21;;;;;;;17.23;9.68;;;;;;;;;;4953413;29;20027;-75
2021/07/23 01:49:47;;;;;;;13.90;10.00;;;;;;;;;;4952870;29;20020;-76
2021/07/23 01:52:13;;;;;;;12.65;9.48;;;;;;;;;;4953729;28;20047;-74
2021/07/23 01:54:39;;;;;;;16.38;9.50;;;;;;;;;;4972390;28;20110;-74
2021/07/23 01:57:05;;;;;;;13.32;10.30;;;;;;;;;;4970780;28;20515;-75
2021/07/23 01:59:31;;;;;;;14.98;10.13;;;;;;;;;;4971506;28;20062;-75
2021/07/23 02:01:57;;;;;;;16.70;10.57;;;;;;;;;;4957998;28;20041;-75
2021/07/23 02:04:24;;;;;;;15.18;10.32;;;;;;;;;;4953563;28;20043;-75
2021/07/23 02:06:50;;;;;;;13.98;10.63;;;;;;;;;;4972033;28;20030;-75
2021/07/23 02:09:16;;;;;;;15.02;10.60;;;;;;;;;;4954406;28;20034;-75
2021/07/23 02:11:42;;;;;;;15.32;11.05;;;;;;;;;;4975386;28;20031;-75
2021/07/23 02:14:08;;;;;;;16.00;10.73;;;;;;;;;;4972758;28;20045;-75
2021/07/23 02:16:35;;;;;;;15.20;9.88;;;;;;;;;;4962242;28;20035;-75
2021/07/23 02:19:01;;;;;;;16.45;9.60;;;;;;;;;;4974907;28;20126;-75
2021/07/23 02:21:27;;;;;;;15.43;10.40;;;;;;;;;;4974231;28;20543;-75
2021/07/23 02:23:53;;;;;;;15.15;9.20;;;;;;;;;;4974994;28;20063;-75
2021/07/23 02:26:19;;;;;;;13.10;10.10;;;;;;;;;;4973077;28;20062;-75
2021/07/23 02:28:46;;;;;;;19.15;10.60;;;16.40;99.90;;;;;;4938879;28;20043;-75
2021/07/23 02:31:12;;;;;;;14.15;10.10;;;15.10;99.90;;;;;;4936443;29;20032;-76
2021/07/23 02:33:38;;;;;;;13.32;9.85;;;14.70;99.90;;;;;;4936653;29;20035;-75
2021/07/23 02:36:04;;;;;;;18.50;11.02;;;14.80;99.90;;;;;;4935518;29;20115;-75
2021/07/23 02:38:29;;;;;;;13.38;9.63;;;14.80;99.90;;;;;;4945427;28;20110;-75
2021/07/23 02:40:56;;;;;;;17.23;10.90;;;14.90;99.90;;;;;;4974235;28;20081;-75
2021/07/23 02:43:22;;;;;;;13.70;10.05;;;14.70;99.90;;;;;;4974114;28;20400;-75
2021/07/23 02:45:48;;;;;;;16.30;10.18;;;16.10;99.90;;;;;;4959256;28;20067;-75
2021/07/23 02:48:13;;;;;;;18.27;10.88;;;15.20;99.90;;;;;;4955931;28;20424;-75
2021/07/23 02:50:39;;;;;;;12.48;9.52;;;14.80;99.90;;;;;;4961266;28;20046;-75
2021/07/23 02:53:05;;;;;;;17.42;9.73;;;14.90;99.90;;;;;;4974943;28;20150;-75
2021/07/23 02:55:30;;;;;;;16.33;10.35;;;15.60;99.90;;;;;;4974506;28;20077;-75
2021/07/23 02:57:56;;;;;;;13.35;9.75;;;15.10;99.90;;;;;;4974814;28;20126;-75
2021/07/23 03:00:25;;;;;;;13.95;9.73;;;14.50;99.90;;;;;;4974093;28;20062;-75
2021/07/23 03:02:50;;;;;;;16.77;10.35;;;14.40;99.90;;;;;;4964247;28;20042;-75
2021/07/23 03:05:16;;;;;;;17.73;10.50;;;15.80;99.90;;;;;;4955474;29;20035;-75
2021/07/23 03:07:42;;;;;;;15.98;10.35;;;14.40;99.90;;;;;;4954018;29;20027;-75
2021/07/23 03:10:09;;;;;;;16.88;10.20;;;15.20;99.90;;;;;;4953251;29;20039;-75
2021/07/23 03:12:34;;;;;;;14.25;10.43;;;14.40;99.90;;;;;;4962268;28;20108;-74
2021/07/23 03:15:00;;;;;;;13.52;9.98;;;14.40;99.90;;;;;;4964642;28;20059;-75
2021/07/23 03:17:26;;;;;;;16.02;9.75;;;14.50;99.90;;;;;;4955046;28;20125;-75
2021/07/23 03:19:52;;;;;;;12.93;10.40;;;14.50;99.90;;;;;;4954451;29;20496;-74
2021/07/23 03:22:18;;;;;;;13.50;9.75;;;14.50;99.90;;;;;;4954095;28;20031;-74
2021/07/23 03:24:44;;;;;;;19.35;11.13;;;14.50;99.90;;;;;;4963870;28;20509;-75
2021/07/23 03:27:10;;;;;;;15.40;10.63;;;14.70;99.90;;;;;;4973945;28;20089;-75
2021/07/23 03:29:36;;;;;;;18.50;10.60;;;15.70;99.90;;;;;;4972050;28;20030;-75
2021/07/23 03:32:01;;;;;;;14.40;9.80;;;14.60;99.90;;;;;;4972783;28;20031;-75
2021/07/23 03:34:27;;;;;;;15.55;10.95;;;14.50;99.90;;;;;;4973956;28;20062;-75
2021/07/23 03:36:53;;;;;;;14.43;10.30;;;14.50;99.90;;;;;;4963942;28;20428;-74
2021/07/23 03:39:18;;;;;;;16.58;10.40;;;14.70;99.90;;;;;;4954063;29;20400;-74
2021/07/23 03:41:44;;;;;;;15.00;9.68;;;14.80;99.90;;;;;;4954493;29;20513;-75
2021/07/23 03:44:09;;;;;;;14.45;10.32;;;14.60;99.90;;;;;;4954577;29;20043;-75
2021/07/23 03:46:35;;;;;;;13.77;9.48;;;14.90;99.90;;;;;;4954607;28;20055;-75
2021/07/23 03:49:00;;;;;;;14.05;9.32;;;14.50;99.90;;;;;;4962252;28;20130;-74
2021/07/23 03:51:26;;;;;;;14.68;9.85;;;14.90;99.90;;;;;;4973317;28;20063;-74
2021/07/23 03:53:52;;;;;;;13.65;10.13;;;15.70;99.90;;;;;;4973529;28;20045;-75
2021/07/23 03:56:17;;;;;;;17.30;10.20;;;14.20;99.90;;;;;;4973465;28;20089;-75
2021/07/23 03:58:43;;;;;;;15.75;10.82;;;14.40;99.90;;;;;;4972356;28;20031;-75
2021/07/23 04:01:08;;;;;;;14.45;9.95;;;14.50;99.90;;;;;;4963610;28;20078;-75
2021/07/23 04:03:34;;;;;;;16.35;10.27;;;14.40;99.90;;;;;;4954157;29;20531;-75
2021/07/23 04:06:00;;;;;;;14.45;10.10;;;14.30;99.90;;;;;;4954088;28;20102;-75
2021/07/23 04:08:27;;;;;;;13.05;10.27;;;15.20;99.90;;;;;;4954194;28;20250;-75
2021/07/23 04:10:53;;;;;;;17.13;10.55;;;15.00;99.90;;;;;;4953366;28;20034;-75
2021/07/23 04:13:18;;;;;;;19.02;10.35;;;14.20;99.90;;;;;;4961715;28;20027;-75
2021/07/23 04:15:44;;;;;;;18.45;10.30;;;15.50;99.90;;;;;;4972660;28;20354;-75
2021/07/23 04:18:09;;;;;;;14.60;10.20;;;15.00;99.90;;;;;;4968917;28;20035;-75
2021/07/23 04:20:35;;;;;;;15.13;9.38;;;14.30;99.90;;;;;;4953632;28;20035;-74
2021/07/23 04:23:00;;;;;;;14.95;10.23;;;14.80;99.90;;;;;;4953626;28;20567;-75
2021/07/23 04:25:26;;;;;;;14.75;9.70;;;14.40;99.90;;;;;;4962236;28;20142;-75
2021/07/23 04:27:52;;;;;;;14.15;9.88;;;15.80;99.90;;;;;;4971579;28;20034;-74
2021/07/23 04:30:17;;;;;;;15.55;10.05;;;15.10;99.90;;;;;;4972621;28;20114;-75
2021/07/23 04:32:44;;;;;;;16.95;9.85;;;14.20;99.90;;;;;;4971713;28;20031;-75
2021/07/23 04:35:10;;;;;;;14.52;9.35;;;14.90;99.90;;;;;;4972038;28;20073;-74
2021/07/23 04:37:35;;;;;;;15.18;10.35;;;14.30;99.90;;;;;;4960799;28;20031;-73
2021/07/23 04:40:06;;;;;;;15.38;9.95;;;14.50;99.90;;;;;;4952958;29;20452;-74
2021/07/23 04:42:32;;;;;;;16.35;9.60;;;14.40;99.90;;;;;;4953492;28;20106;-74
2021/07/23 04:44:57;;;;;;;18.30;10.32;;;15.60;99.90;;;;;;4953637;28;20419;-74
2021/07/23 04:47:23;;;;;;;14.05;9.57;;;15.30;99.90;;;;;;4967942;28;20037;-74
2021/07/23 04:49:49;;;;;;;12.63;9.75;;;14.60;99.90;;;;;;4970871;28;20526;-73
2021/07/23 04:52:15;;;;;;;16.75;9.68;;;14.60;99.90;;;;;;4967538;28;20045;-75
2021/07/23 04:54:41;;;;;;;14.80;9.25;;;15.50;99.90;;;;;;4953381;28;20042;-73
2021/07/23 04:57:06;;;;;;;12.85;9.60;;;14.90;99.90;;;;;;4952056;29;20566;-73
2021/07/23 04:59:32;;;;;;;14.23;9.73;;;15.10;99.90;;;;;;4952951;28;20134;-74
2021/07/23 05:01:58;;;;;;;13.07;8.95;;;15.20;99.90;;;;;;4953384;28;20441;-74
2021/07/23 05:04:24;;;;;;;14.20;8.90;;;15.00;99.90;;;;;;4953303;29;20042;-74
2021/07/23 05:06:50;;;;;;;16.88;10.25;;;15.40;99.90;;;;;;4953293;29;20488;-75
2021/07/23 05:09:15;;;;;;;18.60;9.52;;;15.50;99.90;;;;;;4952574;28;20039;-74
2021/07/23 05:11:42;;;;;;;12.23;9.27;;;15.30;99.90;;;;;;4972266;28;20093;-74
2021/07/23 05:14:08;;;;;;;13.57;9.38;;;16.00;99.90;;;;;;4968485;28;20400;-74
2021/07/23 05:16:35;;;;;;;15.77;9.63;;;15.50;99.90;;;;;;4953315;28;20130;-74
2021/07/23 05:19:01;;;;;;;15.10;9.23;;;15.40;99.90;;;;;;4951206;28;20436;-75
2021/07/23 05:21:28;;;;;;;12.27;8.75;;;16.50;99.90;;;;;;4971487;28;20121;-74
2021/07/23 05:23:54;;;;;;;15.50;8.75;;;15.60;99.90;;;;;;4954278;28;20030;-74
2021/07/23 05:26:20;;;;;;;15.25;8.48;;;16.20;99.90;;;;;;4958900;28;20059;-74
2021/07/23 05:28:45;;;;;;;15.25;8.80;;;16.50;99.90;;;;;;4947331;28;20070;-74
2021/07/23 05:31:11;;;;;;;15.50;9.20;;;16.10;99.90;;;;;;4947709;28;20059;-75
2021/07/23 05:33:37;;;;;;;12.93;9.15;;;16.60;99.90;;;;;;4952620;28;20034;-74
2021/07/23 05:36:03;;;;;;;13.85;9.57;;;16.10;99.90;;;;;;4953123;29;20031;-74
2021/07/23 05:38:28;;;;;;;13.57;9.65;;;16.10;99.90;;;;;;4952337;28;20020;-74
2021/07/23 05:40:54;;;;;;;13.27;9.38;;;16.30;99.90;;;;;;4964603;28;20451;-74
2021/07/23 05:43:20;;;;;;;12.57;8.90;;;16.40;99.90;;;;;;4972411;28;20031;-74
2021/07/23 05:45:45;;;;;;;17.02;9.43;;;16.80;99.90;;;;;;4959178;28;20094;-74
2021/07/23 05:48:11;;;;;;;13.40;9.13;;;17.20;99.90;;;;;;4956665;29;20035;-74
2021/07/23 05:50:36;;;;;;;13.73;9.07;;;16.60;99.90;;;;;;4955954;29;20039;-75
2021/07/23 05:53:02;;;;;;;12.27;8.45;;;17.20;99.90;;;;;;4956737;28;20476;-74
2021/07/23 05:55:28;;;;;;;12.38;8.68;;;16.90;99.90;;;;;;4956585;29;20063;-74
2021/07/23 05:58:00;;;;;;;14.38;8.27;;;17.10;99.90;;;;;;4955023;29;20508;-75
2021/07/23 06:00:29;;;;;;;12.45;8.40;;;17.10;99.90;;;;;;4955931;28;20031;-74
2021/07/23 06:03:02;;;;;;;11.23;7.60;;;17.00;99.90;;;;;;4986696;28;20431;-75
2021/07/23 06:05:27;;;;;;;13.32;7.75;;;17.30;99.90;;;;;;4975565;28;20503;-74
2021/07/23 06:07:53;;;;;;;13.50;8.60;;;17.40;99.90;;;;;;4975738;28;20069;-75
2021/07/23 06:10:18;;;;;;;11.20;8.35;;;17.40;99.90;;;;;;4953592;28;20035;-74
2021/07/23 06:12:44;;;;;;;13.65;9.00;;;17.50;99.90;;;;;;4968132;28;20038;-74
2021/07/23 06:15:10;;;;;;;13.00;8.82;;;17.60;99.90;;;;;;4964112;28;20039;-75
2021/07/23 06:17:35;;;;;;;13.50;8.07;;;17.80;99.90;;;;;;4954829;29;20027;-74
2021/07/23 06:20:02;;;;;;;11.88;8.30;;;17.90;99.90;;;;;;4955279;28;20039;-75
2021/07/23 06:22:27;;;;;;;11.00;8.13;;;18.20;99.90;;;;;;4955772;28;20480;-74
2021/07/23 06:24:55;;;;;;;11.30;7.63;;;18.20;99.90;;;;;;4968284;28;20045;-74
2021/07/23 06:27:21;;;;;;;14.05;8.10;;;18.40;99.90;;;;;;4948156;28;20041;-74
2021/07/23 06:29:48;;;;;;;12.68;8.60;;;19.00;99.90;;;;;;4951413;28;20114;-74
2021/07/23 06:32:14;;;;;;;11.20;8.25;;;;;;;;;;4951855;29;20030;-74
2021/07/23 06:34:40;;;;;;;11.20;7.80;;;18.60;99.90;;;;;;4950026;28;20028;-74
2021/07/23 06:37:06;;;;;;;13.75;8.65;;;18.60;99.90;;;;;;4948050;28;20449;-74
2021/07/23 06:39:32;;;;;;;12.32;7.75;;;18.80;99.90;;;;;;4931727;29;20032;-74
2021/07/23 06:41:59;;;;;;;11.52;7.50;;;18.90;99.90;;;;;;4932455;29;20028;-73
2021/07/23 06:44:28;;;;;;;11.68;8.18;;;19.20;99.90;;;;;;4937955;29;20046;-74
2021/07/23 06:46:54;;;;;;;14.07;8.00;;;19.10;99.90;;;;;;4952318;28;20110;-74
2021/07/23 06:49:19;;;;;;;16.00;7.30;;;19.20;99.90;;;;;;4971024;28;20122;-73
2021/07/23 06:51:45;;;;;;;13.10;8.45;;;;;;;;;;4969441;28;20054;-75
2021/07/23 06:54:12;;;;;;;11.43;7.32;;;;;;;;;;4958952;28;20031;-74
2021/07/23 06:56:38;;;;;;;12.18;7.70;;;;;;;;;;4949103;28;20050;-74
2021/07/23 06:59:04;;;;;;;11.82;7.40;;;;;;;;;;4950547;28;20082;-75
2021/07/23 07:01:30;;;;;;;12.15;7.57;;;;;;;;;;4970415;28;20563;-74
2021/07/23 07:03:56;;;;;;;13.05;7.05;;;;;;;;;;4970874;28;20034;-75
2021/07/23 07:06:22;;;;;;;11.85;7.32;;;;;;;;;;4970358;28;20011;-74
2021/07/23 07:08:49;;;;;;;11.02;8.23;;;;;;;;;;4968976;28;20031;-74
2021/07/23 07:11:15;;;;;;;12.18;7.15;;;;;;;;;;4951789;28;20030;-75
2021/07/23 07:13:41;;;;;;;11.20;8.02;;;19.40;99.90;;;;;;4969971;28;20031;-75
2021/07/23 07:16:06;;;;;;;9.82;7.20;;;20.80;99.90;;;;;;4956473;28;20041;-74
2021/07/23 07:18:32;;;;;;;10.13;6.55;;;20.90;99.90;;;;;;4968849;28;20106;-74
2021/07/23 07:20:58;;;;;;;12.02;7.25;;;21.10;99.90;;;;;;4969492;28;20480;-75
2021/07/23 07:23:23;;;;;;;8.52;6.07;;;21.20;99.90;;;;;;4970563;28;20081;-74
2021/07/23 07:25:49;;;;;;;15.48;6.68;;;21.30;99.90;;;;;;4965659;28;20039;-74
2021/07/23 07:28:15;;;;;;;10.68;6.68;;;21.30;99.90;;;;;;4949288;29;20032;-73
2021/07/23 07:30:45;;;;;;;9.80;7.18;;;21.30;99.90;;;;;;4950415;29;20090;-75
2021/07/23 07:33:11;;;;;;;9.23;6.88;;;21.30;99.90;;;;;;4950444;29;20031;-75
2021/07/23 07:35:37;;;;;;;10.48;6.68;;;21.40;99.90;;;;;;4951308;28;20415;-75
2021/07/23 07:38:03;;;;;;;8.55;6.35;;;21.60;99.90;;;;;;4969987;28;20439;-74
2021/07/23 07:40:29;;;;;;;9.07;6.45;;;21.70;99.90;;;;;;4969024;28;20027;-75
2021/07/23 07:42:54;;;;;;;11.45;7.10;;;21.80;99.90;;;;;;4956664;28;20030;-74
2021/07/23 07:45:20;;;;;;;10.85;6.78;;;21.90;99.90;;;;;;4949055;29;20037;-75
2021/07/23 07:47:46;;;;;;;13.73;6.82;;;22.00;99.90;;;;;;4950507;29;20031;-75
2021/07/23 07:50:12;;;;;;;13.25;6.65;;;22.10;99.90;;;;;;4950292;29;20484;-74
2021/07/23 07:52:37;;;;;;;11.70;6.35;;;22.30;99.90;;;;;;4956786;28;20133;-74
2021/07/23 07:55:03;;;;;;;8.10;6.22;;;22.50;99.90;;;;;;4969250;28;20114;-75
2021/07/23 07:57:29;;;;;;;9.48;6.25;;;22.50;99.90;;;;;;4969803;28;20027;-74
2021/07/23 07:59:57;;;;;;;13.88;6.20;;;22.50;99.90;;;;;;4968670;28;20062;-76
2021/07/23 08:02:23;;;;;;;13.98;6.80;;;22.70;99.90;;;;;;4968472;28;20034;-75
2021/07/23 08:04:49;;;;;;;8.55;6.45;;;22.80;99.90;;;;;;4960795;28;20244;-76
2021/07/23 08:07:20;;;;;;;11.77;6.05;;;22.90;99.90;;;;;;4949384;28;20496;-76
2021/07/23 08:09:52;;;;;;;9.05;6.70;;;23.00;99.90;;;;;;4948341;29;20090;-74
2021/07/23 08:12:19;;;;;;;8.05;6.07;;;23.00;99.90;;;;;;4949816;28;20023;-75
2021/07/23 08:14:45;;;;;;;11.18;7.00;;;23.10;99.90;;;;;;4951877;28;20495;-76
2021/07/23 08:17:10;;;;;;;9.57;6.40;;;23.10;99.90;;;;;;4959596;28;20037;-76
2021/07/23 08:19:37;;;;;;;8.75;6.55;;;23.10;99.90;;;;;;4948574;28;20071;-77
2021/07/23 08:22:04;;;;;;;9.18;6.50;;;23.20;99.90;;;;;;4936315;29;20055;-80
2021/07/23 08:24:30;;;;;;;9.57;6.35;;;23.20;99.90;;;;;;4953595;28;20452;-81
2021/07/23 08:26:55;;;;;;;9.48;7.00;;;23.40;99.90;;;;;;4972968;28;20058;-82
2021/07/23 08:29:21;;;;;;;11.18;6.68;;;23.70;99.90;;;;;;4960080;28;20039;-81
2021/07/23 08:31:47;;;;;;;11.27;6.70;;;23.70;99.90;;;;;;4957778;29;20035;-79
2021/07/23 08:34:14;;;;;;;12.57;6.80;;;23.80;99.90;;;;;;4969939;28;20035;-82
2021/07/23 08:36:40;;;;;;;9.88;6.30;;;23.90;99.90;;;;;;4976955;28;20019;-80
2021/07/23 08:39:05;;;;;;;11.82;6.57;;;24.00;99.90;;;;;;4977165;28;20033;-82
2021/07/23 08:41:31;;;;;;;9.25;6.20;;;24.10;99.90;;;;;;4960941;28;20035;-81
2021/07/23 08:43:57;;;;;;;10.20;6.20;;;24.30;99.90;;;;;;4960748;29;20504;-81
2021/07/23 08:46:23;;;;;;;9.65;6.05;;;24.40;99.90;;;;;;4960844;28;20023;-82
2021/07/23 08:48:48;;;;;;;14.43;7.15;;;24.40;99.90;;;;;;4971845;28;20457;-81
2021/07/23 08:51:20;;;;;;;10.27;7.07;;;24.30;99.90;;;;;;4956288;29;20103;-82
2021/07/23 08:53:47;;;;;;;10.38;7.03;;;24.50;99.90;;;;;;4973337;28;20102;-80
2021/07/23 08:56:12;;;;;;;13.68;7.28;;;24.50;99.90;;;;;;4976603;28;20031;-81
2021/07/23 08:58:38;;;;;;;10.00;7.13;;;24.40;99.90;;;;;;4961444;28;20090;-82
2021/07/23 09:01:06;;;;;;;10.13;7.07;;;24.60;99.90;;;;;;4957252;29;20042;-81
2021/07/23 09:03:33;;;;;;;8.77;6.78;;;24.70;99.90;;;;;;4971884;28;20027;-81
2021/07/23 09:06:16;;;;;;;8.98;6.22;;;24.80;99.90;;;;;;4952314;28;20035;-82
2021/07/23 09:08:50;;;;;;;10.77;6.88;;;24.90;99.90;;;;;;4939937;29;20050;-79
2021/07/23 09:11:25;;;;;;;9.40;6.32;;;24.90;99.90;;;;;;4957661;28;20031;-81
2021/07/23 09:13:50;;;;;;;10.30;6.78;;;25.00;99.90;;;;;;4974577;28;20023;-80
2021/07/23 09:16:26;;;;;;;9.98;6.32;;;25.10;99.90;;;;;;4958067;28;20043;-78
2021/07/23 09:19:06;;;;;;;8.10;6.18;;;25.50;99.90;;;;;;4990771;28;20035;-79
2021/07/23 09:21:37;;;;;;;10.00;6.85;;;25.40;99.90;;;;;;4981037;28;20022;-82
2021/07/23 09:24:04;;;;;;;10.18;6.57;;;25.40;99.90;;;;;;4980645;28;20046;-81
2021/07/23 09:26:42;;;;;;;11.43;6.82;;;25.30;99.90;;;;;;4979722;28;20423;-80
2021/07/23 09:29:08;;;;;;;8.32;6.35;;;25.30;99.90;;;;;;4969182;28;20523;-81
2021/07/23 09:31:35;;;;;;;14.48;7.07;;;25.40;99.90;;;;;;4961607;28;20027;-81
2021/07/23 09:34:03;;;;;;;7.78;6.15;;;25.60;99.90;;;;;;4960744;28;20036;-79
2021/07/23 09:36:29;;;;;;;10.88;7.00;;;25.80;99.90;;;;;;4961138;28;20054;-79
2021/07/23 09:39:05;;;;;;;8.35;6.75;;;25.90;99.90;;;;;;4960870;29;20031;-79
2021/07/23 09:41:33;;;;;;;8.68;6.78;;;26.00;99.50;;;;;;4978150;28;20053;-78
2021/07/23 09:44:11;;;;;;;8.70;6.68;;;26.10;98.70;;;;;;4978066;28;20077;-81
2021/07/23 09:46:46;;;;;;;7.93;5.80;;;26.30;99.60;;;;;;4961147;28;20680;-83
2021/07/23 09:49:33;;;;;;;8.32;6.55;;;26.40;96.80;;;;;;4960479;28;20047;-79
2021/07/23 09:52:02;;;;;;;10.52;6.38;;;26.40;97.50;;;;;;4981076;28;20026;-81
2021/07/23 09:54:28;;;;;;;7.53;6.13;;;26.50;96.40;;;;;;4980959;28;20034;-81
2021/07/23 09:56:53;;;;;;;8.43;6.20;;;26.60;95.20;;;;;;4980223;28;20039;-80
2021/07/23 09:59:49;;;;;;;10.95;5.78;;;26.60;95.20;;;;;;4979810;28;20023;-82
2021/07/23 10:02:22;;;;;;;8.63;5.95;;;26.60;94.90;;;;;;4966369;28;20525;-82
2021/07/23 10:05:06;;;;;;;9.20;6.35;;;26.70;94.70;;;;;;4982257;28;20587;-82
2021/07/23 10:07:43;;;;;;;10.70;5.85;;;26.90;95.60;;;;;;4979681;28;20159;-81
2021/07/23 10:10:13;;;;;;;7.20;5.97;;;27.10;94.80;;;;;;4967414;28;20058;-82
2021/07/23 10:12:41;;;;;;;8.30;6.07;;;27.10;96.30;;;;;;4960281;28;20167;-82
2021/07/23 10:15:07;;;;;;;7.90;6.25;;;27.30;94.00;;;;;;4962364;28;20381;-82
2021/07/23 10:17:35;;;;;;;8.35;5.95;;;27.70;93.70;;;;;;4961146;28;20027;-82
2021/07/23 10:20:02;;;;;;;10.20;6.63;;;27.70;92.20;;;;;;4958784;29;20027;-81
2021/07/23 10:22:28;;;;;;;11.18;6.25;;;27.70;92.20;;;;;;4957890;28;20489;-77
2021/07/23 10:24:54;;;;;;;7.90;5.72;;;27.90;91.90;;;;;;4956362;28;20126;-80
2021/07/23 10:27:23;;;;;;;8.30;6.10;;;27.60;91.10;;;;;;4959608;28;20389;-81
2021/07/23 10:29:50;;;;;;;9.45;6.10;;;27.80;91.00;;;;;;4961908;28;20701;-79
2021/07/23 10:32:29;;;;;;;10.60;5.90;;;27.80;90.40;;;;;;4984533;28;20577;-80
2021/07/23 10:35:18;;;;;;;12.05;5.97;;;27.80;90.70;;;;;;4974386;28;20086;-78
2021/07/23 10:37:48;;;;;;;8.27;5.95;;;28.00;89.10;;;;;;4950098;28;20039;-80
2021/07/23 10:40:15;;;;;;;13.07;6.38;;;27.80;88.50;;;;;;4960718;28;20034;-82
2021/07/23 10:42:44;;;;;;;11.73;6.45;;;27.80;90.60;;;;;;4964396;28;20027;-78
2021/07/23 10:45:14;;;;;;;8.23;5.75;;;27.90;90.20;;;;;;4949339;28;20419;-81
2021/07/23 10:47:44;;;;;;;8.48;6.95;;;28.10;89.10;;;;;;4961252;28;20020;-83
2021/07/23 10:50:27;;;;;;;10.52;6.05;;;28.40;87.00;;;;;;4960110;28;20475;-82
2021/07/23 10:52:54;;;;;;;9.70;6.38;;;28.30;87.90;;;;;;4966681;28;20027;-81
2021/07/23 10:55:21;;;;;;;8.68;6.47;;;28.30;89.10;;;;;;4972388;28;20099;-81
2021/07/23 10:58:13;;;;;;;9.07;6.63;;;27.80;85.50;;;;;;4962067;29;20491;-79
2021/07/23 11:00:50;;;;;;;11.63;6.18;;;27.80;87.40;;;;;;4947988;29;20122;-82
2021/07/23 11:03:37;;;;;;;8.15;6.15;;;27.80;88.70;;;;;;4961092;28;20019;-82
2021/07/23 11:06:21;;;;;;;10.50;6.47;;;28.30;87.00;;;;;;4961107;28;20543;-82
2021/07/23 11:08:50;;;;;;;8.05;6.32;;;28.80;83.30;;;;;;4960660;28;20030;-76
2021/07/23 11:11:17;;;;;;;11.45;6.55;;;29.00;82.60;;;;;;4962504;28;20035;-79
2021/07/23 11:13:44;;;;;;;7.95;5.93;;;29.40;81.80;;;;;;4966445;28;20027;-78
2021/07/23 11:16:18;;;;;;;10.65;6.25;;;29.50;79.90;;;;;;4960894;28;20046;-80
2021/07/23 11:18:50;;;;;;;8.95;6.32;;;29.60;80.00;;;;;;4963527;28;20027;-83
2021/07/23 11:21:16;;;;;;;10.40;6.28;;;29.70;79.20;;;;;;4962106;28;20031;-82
2021/07/23 11:23:42;;;;;;;9.38;6.63;;;29.50;79.20;;;;;;4956436;28;20036;-81
2021/07/23 11:26:07;;;;;;;8.90;6.68;;;29.70;77.80;;;;;;4961341;28;20038;-82
2021/07/23 11:28:49;;;;;;;9.52;7.63;;;30.00;77.40;;;;;;4976397;28;20167;-83
2021/07/23 11:31:33;;;;;;;7.65;6.47;;;30.10;78.20;;;;;;4977367;28;20023;-82
2021/07/23 11:34:21;;;;;;;7.53;6.03;;;30.00;75.40;;;;;;4962623;28;20404;-81
2021/07/23 11:36:46;;;;;;;11.25;6.55;;;29.80;75.80;;;;;;4956930;28;20031;-80
2021/07/23 11:39:12;;;;;;;8.23;6.68;;;29.70;75.60;;;;;;4980384;28;20046;-80
2021/07/23 11:42:04;;;;;;;9.90;6.43;;;29.80;76.30;;;;;;4982241;28;20430;-82
2021/07/23 11:44:31;;;;;;;11.20;6.57;;;30.50;74.50;;;;;;4981889;28;20106;-79
2021/07/23 11:46:57;;;;;;;10.50;6.13;;;30.90;75.10;;;;;;4980485;28;20035;-80
2021/07/23 11:49:30;;;;;;;15.23;6.70;;;30.60;74.20;;;;;;4968941;28;20031;-81
2021/07/23 11:51:56;;;;;;;7.30;6.13;;;31.10;74.80;;;;;;4967859;28;20034;-80
2021/07/23 11:54:22;;;;;;;7.93;6.47;;;31.50;70.80;;;;;;4968500;29;20488;-79
2021/07/23 11:56:48;;;;;;;10.15;6.72;;;31.90;71.30;;;;;;4970362;28;20033;-82
2021/07/23 11:59:14;;;;;;;11.88;6.65;;;32.20;70.20;;;;;;4977223;28;20042;-81
2021/07/23 12:01:41;;;;;;;9.77;6.90;;;32.20;69.70;;;;;;4985157;28;20027;-80
2021/07/23 12:04:08;;;;;;;8.95;7.00;;;32.30;69.60;;;;;;4986617;28;20046;-79
2021/07/23 12:06:38;;;;;;;8.38;6.32;;;32.90;67.10;;;;;;4987271;28;20019;-79
2021/07/23 12:09:09;;;;;;;8.52;6.70;;;32.90;66.20;;;;;;4970407;28;20024;-81
2021/07/23 12:11:36;;;;;;;10.13;7.05;;;32.40;66.20;;;;;;4963651;28;20090;-79
2021/07/23 12:14:07;;;;;;;9.50;6.78;;;32.40;66.30;;;;;;4962481;28;20503;-82
2021/07/23 12:16:32;;;;;;;8.30;7.00;;;32.80;64.10;;;;;;4964810;28;20031;-82
2021/07/23 12:19:00;;;;;;;10.38;6.90;;;32.70;65.70;;;;;;4973710;28;20090;-81
2021/07/23 12:21:26;;;;;;;8.15;6.60;;;32.80;65.40;;;;;;4981801;28;20023;-80
2021/07/23 12:24:02;;;;;;;10.02;6.85;;;33.30;64.30;;;;;;4979988;28;20035;-81
2021/07/23 12:26:30;;;;;;;10.38;7.00;;;33.70;62.70;;;;;;4980092;28;20019;-80
2021/07/23 12:28:57;;;;;;;8.20;6.57;;;33.70;63.00;;;;;;4971334;28;20696;-80
2021/07/23 12:31:23;;;;;;;11.98;6.63;;;34.00;61.30;;;;;;4987353;28;20023;-82
2021/07/23 12:34:05;;;;;;;9.10;7.05;;;34.20;60.30;;;;;;4986419;28;20082;-82
2021/07/23 12:36:42;;;;;;;8.55;6.95;;;33.90;62.00;;;;;;4982559;28;20050;-81
2021/07/23 12:39:09;;;;;;;9.43;6.50;;;34.10;61.20;;;;;;4975232;28;20070;-81
2021/07/23 12:41:34;;;;;;;8.77;7.45;;;34.80;61.30;;;;;;4958329;29;20034;-81
2021/07/23 12:44:04;;;;;;;11.07;7.00;;;34.60;60.80;;;;;;4957468;28;20031;-81
2021/07/23 12:46:31;;;;;;;9.18;6.85;;;34.60;59.20;;;;;;4958635;28;20074;-81
2021/07/23 12:49:07;;;;;;;9.95;7.03;;;;;;;;;;4962783;28;20038;-81
2021/07/23 12:51:33;;;;;;;8.68;6.75;;;35.20;59.60;;;;;;4978139;28;20025;-81
2021/07/23 12:53:58;;;;;;;10.02;6.82;;;35.70;59.20;;;;;;4979133;28;20479;-80
2021/07/23 12:56:32;;;;;;;11.07;6.70;;;35.80;57.60;;;;;;4978229;28;20031;-81
2021/07/23 12:58:58;;;;;;;9.57;6.78;;;36.00;57.00;;;;;;4973728;28;20054;-82
2021/07/23 13:01:25;;;;;;;7.60;6.60;;;36.30;56.80;;;;;;4959960;28;20451;-81